DLH3YM EDDF-EDDB
Flight info
| Callsign | DLH3YM |
|---|---|
| Flight time | 0h 50m |
| Altitude | 31000 |
| Route | TOBAK2D TOBAK N858 SWALM T201 TAMEB T278 KLF KLF1L |
| Aircraft | A321/M-SDE3FGHIRWY/LB1 |
Departure
| Time | 2026-05-01 12:57 |
|---|---|
| Airport | Frankfurt Main Airport (EDDF) |
Arrival
| Time | 2026-05-01 13:47 |
|---|---|
| Airport | Berlin Brandenburg Airport (EDDB) |
| Time | Latitude | Longitude | Altitude | Speed | Heading |
|---|---|---|---|---|---|
| 2026-05-01 12:32 | 50.04608 | 8.56771 | 360 ft | 0 kts | 295° |
| 2026-05-01 12:47 | 50.04603 | 8.56788 | 356 ft | 2 kts | 295° |
| 2026-05-01 12:48 | 50.04596 | 8.56811 | 363 ft | 2 kts | 294° |
| 2026-05-01 12:48 | 50.04589 | 8.56834 | 360 ft | 2 kts | 294° |
| 2026-05-01 12:48 | 50.04583 | 8.56858 | 362 ft | 2 kts | 262° |
| 2026-05-01 12:48 | 50.04588 | 8.56883 | 361 ft | 2 kts | 237° |
| 2026-05-01 12:49 | 50.04598 | 8.56903 | 360 ft | 2 kts | 214° |
| 2026-05-01 12:49 | 50.04613 | 8.56913 | 365 ft | 2 kts | 193° |
| 2026-05-01 12:49 | 50.04629 | 8.56921 | 364 ft | 2 kts | 200° |
| 2026-05-01 12:49 | 50.04645 | 8.56930 | 358 ft | 2 kts | 202° |
| 2026-05-01 12:50 | 50.04655 | 8.56936 | 364 ft | 1 kts | 202° |
| 2026-05-01 12:50 | 50.04656 | 8.56937 | 363 ft | 0 kts | 202° |
| 2026-05-01 12:50 | 50.04650 | 8.56933 | 359 ft | 3 kts | 202° |
| 2026-05-01 12:51 | 50.04603 | 8.56909 | 365 ft | 11 kts | 194° |
| 2026-05-01 12:51 | 50.04535 | 8.56884 | 359 ft | 11 kts | 192° |
| 2026-05-01 12:51 | 50.04382 | 8.56837 | 360 ft | 9 kts | 188° |
| 2026-05-01 12:52 | 50.04331 | 8.56823 | 360 ft | 12 kts | 191° |
| 2026-05-01 12:52 | 50.04279 | 8.56807 | 363 ft | 10 kts | 191° |
| 2026-05-01 12:52 | 50.04240 | 8.56753 | 362 ft | 15 kts | 248° |
| 2026-05-01 12:53 | 50.04137 | 8.56315 | 355 ft | 23 kts | 249° |
| 2026-05-01 12:53 | 50.04082 | 8.56089 | 354 ft | 22 kts | 250° |
| 2026-05-01 12:53 | 50.04032 | 8.55872 | 358 ft | 23 kts | 249° |
| 2026-05-01 12:54 | 50.03971 | 8.55622 | 351 ft | 24 kts | 250° |
| 2026-05-01 12:54 | 50.03851 | 8.55125 | 356 ft | 25 kts | 249° |
| 2026-05-01 12:54 | 50.03789 | 8.54861 | 351 ft | 23 kts | 250° |
| 2026-05-01 12:55 | 50.03676 | 8.54393 | 351 ft | 23 kts | 249° |
| 2026-05-01 12:55 | 50.03586 | 8.54321 | 336 ft | 19 kts | 161° |
| 2026-05-01 12:55 | 50.03490 | 8.54381 | 351 ft | 6 kts | 144° |
| 2026-05-01 12:56 | 50.03501 | 8.54462 | 348 ft | 11 kts | 69° |
| 2026-05-01 12:56 | 50.03591 | 8.54842 | 347 ft | 71 kts | 70° |
| 2026-05-01 12:56 | 50.03835 | 8.55864 | 356 ft | 130 kts | 70° |
| 2026-05-01 12:56 | 50.04202 | 8.57398 | 539 ft | 160 kts | 71° |
| 2026-05-01 12:57 | 50.04598 | 8.59057 | 1236 ft | 163 kts | 71° |
| 2026-05-01 12:57 | 50.05398 | 8.62532 | 2352 ft | 188 kts | 74° |
| 2026-05-01 12:57 | 50.05842 | 8.64577 | 2547 ft | 211 kts | 73° |
| 2026-05-01 12:58 | 50.06436 | 8.66771 | 2896 ft | 234 kts | 58° |
| 2026-05-01 12:58 | 50.07741 | 8.68479 | 3226 ft | 258 kts | 30° |
| 2026-05-01 12:58 | 50.09357 | 8.69768 | 3892 ft | 263 kts | 30° |
| 2026-05-01 12:59 | 50.12711 | 8.72425 | 5199 ft | 278 kts | 31° |
| 2026-05-01 12:59 | 50.14441 | 8.73806 | 5927 ft | 281 kts | 30° |
| 2026-05-01 12:59 | 50.17959 | 8.76629 | 7292 ft | 288 kts | 30° |
| 2026-05-01 13:00 | 50.21541 | 8.79516 | 8724 ft | 292 kts | 30° |
| 2026-05-01 13:00 | 50.23327 | 8.80958 | 9422 ft | 294 kts | 30° |
| 2026-05-01 13:01 | 50.27005 | 8.83937 | 10634 ft | 307 kts | 30° |
| 2026-05-01 13:01 | 50.28965 | 8.85532 | 10764 ft | 328 kts | 30° |
| 2026-05-01 13:01 | 50.33201 | 8.88977 | 11432 ft | 351 kts | 30° |
| 2026-05-01 13:02 | 50.35375 | 8.90738 | 12011 ft | 353 kts | 30° |
| 2026-05-01 13:07 | 50.75120 | 9.43034 | 22183 ft | 393 kts | 77° |
| 2026-05-01 13:07 | 50.75748 | 9.47240 | 22577 ft | 395 kts | 77° |
| 2026-05-01 13:07 | 50.76381 | 9.51474 | 22986 ft | 397 kts | 77° |
| 2026-05-01 13:08 | 50.77018 | 9.55731 | 23375 ft | 399 kts | 77° |
| 2026-05-01 13:08 | 50.77657 | 9.60012 | 23764 ft | 401 kts | 77° |
| 2026-05-01 13:08 | 50.78293 | 9.64318 | 24096 ft | 404 kts | 77° |
| 2026-05-01 13:08 | 50.78933 | 9.68657 | 24420 ft | 406 kts | 77° |
| 2026-05-01 13:09 | 50.79577 | 9.73007 | 24752 ft | 408 kts | 77° |
| 2026-05-01 13:09 | 50.80227 | 9.77384 | 25071 ft | 410 kts | 77° |
| 2026-05-01 13:09 | 50.80879 | 9.81787 | 25391 ft | 412 kts | 77° |
| 2026-05-01 13:09 | 50.81533 | 9.86227 | 25706 ft | 414 kts | 77° |
| 2026-05-01 13:10 | 50.82186 | 9.90681 | 26025 ft | 416 kts | 77° |
| 2026-05-01 13:10 | 50.82831 | 9.95111 | 26345 ft | 418 kts | 77° |
| 2026-05-01 13:10 | 50.83481 | 9.99613 | 26650 ft | 420 kts | 77° |
| 2026-05-01 13:10 | 50.84123 | 10.04135 | 26961 ft | 422 kts | 79° |
| 2026-05-01 13:11 | 50.84455 | 10.08764 | 27243 ft | 425 kts | 88° |
| 2026-05-01 13:11 | 50.84310 | 10.13445 | 27534 ft | 427 kts | 95° |
| 2026-05-01 13:11 | 50.84035 | 10.18135 | 27829 ft | 429 kts | 95° |
| 2026-05-01 13:11 | 50.83764 | 10.22854 | 28118 ft | 431 kts | 95° |
| 2026-05-01 13:12 | 50.83492 | 10.27579 | 28406 ft | 433 kts | 95° |
| 2026-05-01 13:12 | 50.83216 | 10.32342 | 28687 ft | 435 kts | 94° |
| 2026-05-01 13:12 | 50.82943 | 10.37056 | 28966 ft | 437 kts | 94° |
| 2026-05-01 13:12 | 50.82666 | 10.41856 | 29248 ft | 439 kts | 94° |
| 2026-05-01 13:13 | 50.82385 | 10.46678 | 29526 ft | 441 kts | 94° |
| 2026-05-01 13:13 | 50.82099 | 10.51515 | 29778 ft | 443 kts | 94° |
| 2026-05-01 13:13 | 50.81807 | 10.56369 | 30028 ft | 445 kts | 95° |
| 2026-05-01 13:13 | 50.81509 | 10.61249 | 30272 ft | 446 kts | 94° |
| 2026-05-01 13:14 | 50.81259 | 10.66146 | 30495 ft | 447 kts | 90° |
| 2026-05-01 13:14 | 50.81435 | 10.71059 | 30674 ft | 448 kts | 81° |
| 2026-05-01 13:14 | 50.82121 | 10.75861 | 30919 ft | 447 kts | 71° |
| 2026-05-01 13:14 | 50.83287 | 10.80397 | 31193 ft | 445 kts | 62° |
| 2026-05-01 13:15 | 50.84752 | 10.84718 | 31352 ft | 445 kts | 61° |
| 2026-05-01 13:15 | 50.86196 | 10.88965 | 31381 ft | 431 kts | 61° |
| 2026-05-01 13:15 | 50.87597 | 10.93114 | 31381 ft | 425 kts | 61° |
| 2026-05-01 13:16 | 50.90359 | 11.01357 | 31384 ft | 422 kts | 62° |
| 2026-05-01 13:16 | 50.93088 | 11.09536 | 31384 ft | 422 kts | 62° |
| 2026-05-01 13:17 | 50.98576 | 11.25995 | 31385 ft | 422 kts | 62° |
| 2026-05-01 13:18 | 51.02680 | 11.38377 | 31391 ft | 422 kts | 62° |
| 2026-05-01 13:18 | 51.05409 | 11.46641 | 31403 ft | 422 kts | 62° |
| 2026-05-01 13:19 | 51.08138 | 11.54921 | 31404 ft | 422 kts | 62° |
| 2026-05-01 13:20 | 51.12183 | 11.67296 | 31411 ft | 422 kts | 62° |
| 2026-05-01 13:20 | 51.14889 | 11.75598 | 31415 ft | 422 kts | 62° |
| 2026-05-01 13:21 | 51.18933 | 11.88068 | 31423 ft | 421 kts | 62° |
| 2026-05-01 13:21 | 51.21947 | 11.96040 | 31423 ft | 420 kts | 50° |
| 2026-05-01 13:22 | 51.23886 | 11.99427 | 31402 ft | 406 kts | 46° |
| 2026-05-01 13:22 | 51.25810 | 12.02650 | 31207 ft | 396 kts | 46° |
| 2026-05-01 13:22 | 51.27701 | 12.05818 | 30797 ft | 392 kts | 46° |
| 2026-05-01 13:22 | 51.29553 | 12.08926 | 30376 ft | 389 kts | 46° |
| 2026-05-01 13:23 | 51.31408 | 12.12048 | 29879 ft | 386 kts | 46° |
| 2026-05-01 13:23 | 51.33245 | 12.15149 | 29565 ft | 382 kts | 46° |
| 2026-05-01 13:23 | 51.35067 | 12.18230 | 29286 ft | 381 kts | 46° |
| 2026-05-01 13:23 | 51.36886 | 12.21307 | 29007 ft | 379 kts | 46° |
| 2026-05-01 13:24 | 51.38694 | 12.24369 | 28727 ft | 378 kts | 46° |
| 2026-05-01 13:24 | 51.40493 | 12.27418 | 28460 ft | 376 kts | 46° |
| 2026-05-01 13:24 | 51.42282 | 12.30452 | 28187 ft | 374 kts | 46° |
| 2026-05-01 13:25 | 51.45829 | 12.36485 | 27666 ft | 370 kts | 47° |
| 2026-05-01 13:25 | 51.47585 | 12.39479 | 27400 ft | 368 kts | 47° |
| 2026-05-01 13:25 | 51.49336 | 12.42465 | 27138 ft | 366 kts | 47° |
| 2026-05-01 13:25 | 51.51077 | 12.45436 | 26905 ft | 362 kts | 47° |
| 2026-05-01 13:26 | 51.52783 | 12.48351 | 26595 ft | 355 kts | 47° |
| 2026-05-01 13:26 | 51.54460 | 12.51224 | 26230 ft | 351 kts | 47° |
| 2026-05-01 13:26 | 51.56118 | 12.54071 | 25853 ft | 347 kts | 47° |
| 2026-05-01 13:26 | 51.57759 | 12.56888 | 25478 ft | 343 kts | 47° |
| 2026-05-01 13:27 | 51.59357 | 12.59634 | 25120 ft | 338 kts | 47° |
| 2026-05-01 13:27 | 51.60979 | 12.62426 | 24738 ft | 335 kts | 47° |
| 2026-05-01 13:27 | 51.64105 | 12.67809 | 24002 ft | 328 kts | 48° |
| 2026-05-01 13:28 | 51.67184 | 12.73124 | 23226 ft | 320 kts | 48° |
| 2026-05-01 13:28 | 51.68689 | 12.75728 | 22856 ft | 315 kts | 48° |
| 2026-05-01 13:29 | 51.71643 | 12.80849 | 22134 ft | 309 kts | 48° |
| 2026-05-01 13:29 | 51.74559 | 12.85915 | 21412 ft | 306 kts | 48° |
| 2026-05-01 13:30 | 51.79696 | 12.96556 | 19974 ft | 299 kts | 59° |
| 2026-05-01 13:31 | 51.81846 | 13.02268 | 19228 ft | 296 kts | 59° |
| 2026-05-01 13:31 | 51.85048 | 13.10713 | 18191 ft | 289 kts | 53° |
| 2026-05-01 13:32 | 51.87939 | 13.15668 | 17193 ft | 313 kts | 47° |
| 2026-05-01 13:33 | 51.92587 | 13.23347 | 15301 ft | 323 kts | 47° |
| 2026-05-01 13:33 | 51.95748 | 13.28581 | 14092 ft | 327 kts | 47° |
| 2026-05-01 13:34 | 51.98955 | 13.33857 | 12774 ft | 329 kts | 47° |
| 2026-05-01 13:34 | 52.02148 | 13.39145 | 11531 ft | 331 kts | 47° |
| 2026-05-01 13:35 | 52.05346 | 13.44485 | 10523 ft | 326 kts | 47° |
| 2026-05-01 13:35 | 52.06907 | 13.47100 | 10157 ft | 319 kts | 47° |
| 2026-05-01 13:35 | 52.09943 | 13.52187 | 9356 ft | 307 kts | 47° |
| 2026-05-01 13:36 | 52.11416 | 13.54663 | 8972 ft | 302 kts | 47° |
| 2026-05-01 13:36 | 52.12867 | 13.57103 | 8577 ft | 298 kts | 47° |
| 2026-05-01 13:36 | 52.15701 | 13.61886 | 7839 ft | 289 kts | 47° |
| 2026-05-01 13:37 | 52.17089 | 13.64235 | 7478 ft | 286 kts | 47° |
| 2026-05-01 13:37 | 52.17997 | 13.65773 | 7300 ft | 281 kts | 47° |
| 2026-05-01 13:37 | 52.19772 | 13.68785 | 6986 ft | 271 kts | 47° |
| 2026-05-01 13:37 | 52.21066 | 13.70983 | 6738 ft | 266 kts | 47° |
| 2026-05-01 13:38 | 52.23189 | 13.74589 | 6308 ft | 264 kts | 47° |
| 2026-05-01 13:38 | 52.24458 | 13.76759 | 6054 ft | 264 kts | 47° |
| 2026-05-01 13:38 | 52.25719 | 13.78929 | 5789 ft | 263 kts | 47° |
| 2026-05-01 13:39 | 52.26976 | 13.81102 | 5543 ft | 263 kts | 47° |
| 2026-05-01 13:39 | 52.28228 | 13.83276 | 5289 ft | 261 kts | 47° |
| 2026-05-01 13:39 | 52.29460 | 13.85424 | 5036 ft | 256 kts | 47° |
| 2026-05-01 13:39 | 52.30664 | 13.87523 | 4777 ft | 251 kts | 47° |
| 2026-05-01 13:40 | 52.31844 | 13.89590 | 4522 ft | 247 kts | 47° |
| 2026-05-01 13:40 | 52.33049 | 13.91547 | 4261 ft | 242 kts | 33° |
| 2026-05-01 13:40 | 52.34602 | 13.92457 | 4078 ft | 236 kts | 2° |
| 2026-05-01 13:40 | 52.36177 | 13.92013 | 4011 ft | 228 kts | 342° |
| 2026-05-01 13:41 | 52.37680 | 13.91166 | 4008 ft | 229 kts | 341° |
| 2026-05-01 13:41 | 52.39169 | 13.90246 | 3956 ft | 227 kts | 338° |
| 2026-05-01 13:41 | 52.40466 | 13.88847 | 3760 ft | 221 kts | 321° |
| 2026-05-01 13:41 | 52.41615 | 13.87277 | 3614 ft | 209 kts | 321° |
| 2026-05-01 13:42 | 52.42699 | 13.85811 | 3487 ft | 196 kts | 321° |
| 2026-05-01 13:42 | 52.43676 | 13.84352 | 3327 ft | 186 kts | 309° |
| 2026-05-01 13:42 | 52.44226 | 13.82502 | 3057 ft | 184 kts | 284° |
| 2026-05-01 13:42 | 52.44241 | 13.80402 | 3011 ft | 188 kts | 260° |
| 2026-05-01 13:43 | 52.43807 | 13.78369 | 3010 ft | 190 kts | 250° |
| 2026-05-01 13:43 | 52.43330 | 13.76345 | 3016 ft | 191 kts | 250° |
| 2026-05-01 13:43 | 52.42856 | 13.74320 | 3026 ft | 188 kts | 249° |
| 2026-05-01 13:43 | 52.42405 | 13.72398 | 3015 ft | 169 kts | 250° |
| 2026-05-01 13:44 | 52.41995 | 13.70653 | 2982 ft | 160 kts | 250° |
| 2026-05-01 13:44 | 52.41605 | 13.68941 | 2576 ft | 162 kts | 251° |
| 2026-05-01 13:44 | 52.41200 | 13.67241 | 2190 ft | 159 kts | 249° |
| 2026-05-01 13:44 | 52.40787 | 13.65549 | 1937 ft | 159 kts | 249° |
| 2026-05-01 13:45 | 52.40403 | 13.63867 | 1651 ft | 159 kts | 251° |
| 2026-05-01 13:45 | 52.40006 | 13.62182 | 1410 ft | 158 kts | 249° |
| 2026-05-01 13:45 | 52.39608 | 13.60503 | 1265 ft | 158 kts | 250° |
| 2026-05-01 13:45 | 52.39211 | 13.58834 | 1046 ft | 157 kts | 250° |
| 2026-05-01 13:46 | 52.38832 | 13.57190 | 834 ft | 152 kts | 249° |
| 2026-05-01 13:46 | 52.38454 | 13.55589 | 604 ft | 149 kts | 249° |
| 2026-05-01 13:46 | 52.38086 | 13.54047 | 400 ft | 146 kts | 248° |
| 2026-05-01 13:46 | 52.37719 | 13.52509 | 200 ft | 144 kts | 248° |
| 2026-05-01 13:47 | 52.37391 | 13.51121 | 161 ft | 111 kts | 249° |
| 2026-05-01 13:47 | 52.37173 | 13.50205 | 158 ft | 62 kts | 249° |
| 2026-05-01 13:47 | 52.37027 | 13.49698 | 158 ft | 37 kts | 230° |
| 2026-05-01 13:47 | 52.36855 | 13.49452 | 152 ft | 30 kts | 211° |
| 2026-05-01 13:48 | 52.36702 | 13.49519 | 147 ft | 20 kts | 129° |
| 2026-05-01 13:48 | 52.36716 | 13.49678 | 148 ft | 12 kts | 70° |
| 2026-05-01 13:48 | 52.36749 | 13.49826 | 148 ft | 17 kts | 68° |
| 2026-05-01 13:48 | 52.36794 | 13.50014 | 148 ft | 18 kts | 69° |
| 2026-05-01 13:49 | 52.36786 | 13.50179 | 152 ft | 14 kts | 137° |
| 2026-05-01 13:49 | 52.36699 | 13.50240 | 153 ft | 13 kts | 158° |
| 2026-05-01 13:49 | 52.36607 | 13.50298 | 153 ft | 10 kts | 158° |
| 2026-05-01 13:49 | 52.36597 | 13.50379 | 154 ft | 9 kts | 69° |
| 2026-05-01 13:50 | 52.36615 | 13.50450 | 155 ft | 2 kts | 68° |
| 2026-05-01 13:50 | 52.36615 | 13.50454 | 155 ft | 0 kts | 68° |
| 2026-05-01 13:52 | 52.36615 | 13.50453 | 155 ft | 0 kts | 68° |